Time;durP1;ratioP1;P1;durP2;ratioP2;P2;SDS_P1;SDS_P2;PMS_P1;PMS_P2;Temp;Humidity;BMP_temperature;BMP_pressure;BME280_temperature;BME280_humidity;BME280_pressure;Samples;Min_cycle;Max_cycle;Signal;HPM_P1;HPM_P2
2021/05/02 00:00:21;;;;;;;10.52;6.50;;;;;;;;;;1497607;39;20034;-62
2021/05/02 00:01:22;;;;;;;13.45;7.80;;;;;;;;;;1497326;39;20306;-62
2021/05/02 00:02:23;;;;;;;12.40;7.00;;;;;;;;;;1497577;39;20027;-62
2021/05/02 00:03:25;;;;;;;11.50;7.03;;;;;;;;;;1497363;39;20031;-62
2021/05/02 00:04:26;;;;;;;12.38;7.18;;;;;;;;;;1497327;39;20421;-62
2021/05/02 00:05:29;;;;;;;10.98;6.50;;;;;;;;;;1497470;39;20035;-61
2021/05/02 00:06:31;;;;;;;12.70;7.13;;;;;;;;;;1497404;39;20027;-62
2021/05/02 00:07:32;;;;;;;11.25;6.90;;;;;;;;;;1497402;39;20031;-61
2021/05/02 00:08:35;;;;;;;11.70;6.38;;;;;;;;;;1497303;39;20027;-62
2021/05/02 00:09:36;;;;;;;12.68;7.00;;;;;;;;;;1497323;39;20031;-62
2021/05/02 00:10:37;;;;;;;10.98;6.45;;;;;;;;;;1497494;39;20386;-62
2021/05/02 00:11:38;;;;;;;12.02;7.55;;;;;;;;;;1497294;39;20371;-62
2021/05/02 00:12:39;;;;;;;10.98;6.72;;;;;;;;;;1497448;39;20085;-62
2021/05/02 00:13:41;;;;;;;12.65;6.85;;;;;;;;;;1497285;39;20272;-61
2021/05/02 00:14:43;;;;;;;12.88;6.75;;;;;;;;;;1497317;39;20057;-62
2021/05/02 00:15:44;;;;;;;12.30;6.10;;;;;;;;;;1497259;39;20115;-62
2021/05/02 00:16:46;;;;;;;12.90;7.30;;;;;;;;;;1497390;39;20111;-62
2021/05/02 00:17:47;;;;;;;10.93;7.00;;;;;;;;;;1497302;39;20107;-62
2021/05/02 00:18:49;;;;;;;12.10;6.70;;;;;;;;;;1497212;39;20035;-61
2021/05/02 00:19:51;;;;;;;11.85;6.35;;;;;;;;;;1497249;39;20035;-62
2021/05/02 00:20:53;;;;;;;12.48;7.10;;;;;;;;;;1497323;39;20035;-62
2021/05/02 00:21:54;;;;;;;11.55;6.55;;;;;;;;;;1497294;39;20375;-62
2021/05/02 00:22:59;;;;;;;12.10;6.72;;;;;;;;;;1497469;39;20039;-62
2021/05/02 00:24:01;;;;;;;14.73;7.40;;;;;;;;;;1496891;39;20106;-62
2021/05/02 00:25:04;;;;;;;13.50;7.63;;;;;;;;;;1496833;39;20032;-62
2021/05/02 00:26:07;;;;;;;11.32;7.00;;;;;;;;;;1497480;39;20108;-62
2021/05/02 00:27:08;;;;;;;10.98;7.00;;;;;;;;;;1497497;39;20051;-62
2021/05/02 00:28:09;;;;;;;12.73;7.47;;;;;;;;;;1497182;39;20068;-62
2021/05/02 00:29:15;;;;;;;11.40;6.60;;;;;;;;;;1497390;39;20047;-62
2021/05/02 00:30:22;;;;;;;12.43;7.32;;;;;;;;;;1497506;39;20129;-62
2021/05/02 00:31:23;;;;;;;13.00;7.80;;;;;;;;;;1497598;39;20031;-62
2021/05/02 00:32:26;;;;;;;12.27;7.55;;;;;;;;;;1497266;39;20409;-62
2021/05/02 00:33:28;;;;;;;12.18;7.35;;;;;;;;;;1497422;39;20038;-62
2021/05/02 00:34:29;;;;;;;11.77;6.97;;;;;;;;;;1497448;39;20052;-62
2021/05/02 00:35:31;;;;;;;15.88;7.60;;;;;;;;;;1497253;39;20398;-62
2021/05/02 00:36:33;;;;;;;11.40;6.70;;;;;;;;;;1497279;39;20035;-62
2021/05/02 00:37:37;;;;;;;14.05;7.45;;;;;;;;;;1497359;39;20411;-62
2021/05/02 00:38:40;;;;;;;12.25;7.38;;;;;;;;;;1497191;39;20035;-62
2021/05/02 00:39:42;;;;;;;12.27;6.93;;;;;;;;;;1497405;39;20031;-62
2021/05/02 00:40:43;;;;;;;14.75;7.72;;;;;;;;;;1497279;39;20031;-62
2021/05/02 00:41:46;;;;;;;10.70;6.95;;;;;;;;;;1497244;39;20034;-61
2021/05/02 00:42:48;;;;;;;12.77;7.35;;;;;;;;;;1497341;39;20020;-62
2021/05/02 00:43:55;;;;;;;12.23;7.28;;;;;;;;;;1497443;39;20067;-62
2021/05/02 00:45:03;;;;;;;12.95;7.10;;;;;;;;;;1497318;39;20306;-62
2021/05/02 00:46:11;;;;;;;12.93;7.75;;;;;;;;;;1497257;39;20386;-62
2021/05/02 00:47:16;;;;;;;12.05;6.85;;;;;;;;;;1497170;39;20148;-62
2021/05/02 00:48:21;;;;;;;13.77;7.75;;;;;;;;;;1497299;39;20023;-62
2021/05/02 00:49:29;;;;;;;11.15;6.70;;;;;;;;;;1497441;39;20058;-62
2021/05/02 00:50:39;;;;;;;12.68;7.40;;;;;;;;;;1497508;39;20027;-62
2021/05/02 00:51:42;;;;;;;12.27;7.68;;;;;;;;;;1497259;39;20030;-62
2021/05/02 00:53:12;;;;;;;13.35;8.02;;;;;;;;;;1497448;39;20031;-62
2021/05/02 00:54:20;;;;;;;12.52;7.20;;;;;;;;;;1497400;39;20035;-62
2021/05/02 00:55:27;;;;;;;13.38;7.32;;;;;;;;;;1497385;39;20125;-62
2021/05/02 00:56:29;;;;;;;11.07;6.47;;;;;;;;;;1497239;39;20023;-62
2021/05/02 00:57:41;;;;;;;12.52;7.20;;;;;;;;;;1497190;39;20371;-61
2021/05/02 00:58:49;;;;;;;11.98;6.53;;;;;;;;;;1497250;39;20169;-62
2021/05/02 00:59:56;;;;;;;13.77;7.15;;;;;;;;;;1497422;39;20179;-62
2021/05/02 01:00:59;;;;;;;10.85;7.25;;;;;;;;;;1497214;39;20401;-62
2021/05/02 01:02:04;;;;;;;13.55;7.63;;;;;;;;;;1497306;39;20038;-62
2021/05/02 01:03:25;;;;;;;12.75;7.40;;;;;;;;;;1496682;39;20019;-62
2021/05/02 01:04:32;;;;;;;12.88;7.55;;;;;;;;;;1496943;39;20043;-61
2021/05/02 01:05:35;;;;;;;13.15;7.97;;;;;;;;;;1497355;39;20111;-62
2021/05/02 01:06:39;;;;;;;13.98;8.05;;;;;;;;;;1497205;39;20043;-62
2021/05/02 01:07:43;;;;;;;13.43;7.78;;;;;;;;;;1497135;39;20039;-62
2021/05/02 01:08:47;;;;;;;11.93;7.63;;;;;;;;;;1497123;39;20027;-62
2021/05/02 01:09:48;;;;;;;15.60;8.25;;;;;;;;;;1497268;39;20023;-62
2021/05/02 01:10:57;;;;;;;12.55;7.85;;;;;;;;;;1496866;39;20409;-62
2021/05/02 01:12:00;;;;;;;15.30;8.02;;;;;;;;;;1497008;39;20039;-62
2021/05/02 01:13:03;;;;;;;12.98;7.15;;;;;;;;;;1497160;39;20034;-62
2021/05/02 01:14:05;;;;;;;12.52;7.47;;;;;;;;;;1497292;39;20027;-62
2021/05/02 01:15:11;;;;;;;13.38;8.13;;;;;;;;;;1497207;39;20023;-62
2021/05/02 01:16:14;;;;;;;13.02;8.20;;;;;;;;;;1497201;39;20108;-62
2021/05/02 01:17:15;;;;;;;14.65;8.32;;;;;;;;;;1497169;39;20111;-62
2021/05/02 01:18:18;;;;;;;12.88;7.97;;;;;;;;;;1496769;39;20032;-62
2021/05/02 01:19:19;;;;;;;13.40;8.40;;;;;;;;;;1496706;39;20058;-62
2021/05/02 01:20:21;;;;;;;14.88;9.40;;;;;;;;;;1497139;39;20027;-62
2021/05/02 01:21:30;;;;;;;12.88;7.80;;;;;;;;;;1497333;39;20037;-62
2021/05/02 01:22:36;;;;;;;12.75;8.00;;;;;;;;;;1497232;39;20111;-62
2021/05/02 01:23:39;;;;;;;11.65;7.32;;;;;;;;;;1497376;39;20032;-62
2021/05/02 01:24:44;;;;;;;13.68;8.38;;;;;;;;;;1497145;39;20028;-62
2021/05/02 01:25:45;;;;;;;12.10;7.75;;;;;;;;;;1497317;39;20036;-62
2021/05/02 01:26:47;;;;;;;13.45;8.05;;;;;;;;;;1497278;39;20047;-62
2021/05/02 01:27:52;;;;;;;12.90;7.53;;;;;;;;;;1497093;39;20112;-62
2021/05/02 01:28:55;;;;;;;12.93;7.00;;;;;;;;;;1497092;39;20034;-62
2021/05/02 01:29:57;;;;;;;12.57;8.40;;;;;;;;;;1497362;39;20039;-62
2021/05/02 01:30:59;;;;;;;13.68;8.25;;;;;;;;;;1496656;39;20031;-62
2021/05/02 01:32:02;;;;;;;12.88;8.05;;;;;;;;;;1496802;39;20035;-62
2021/05/02 01:33:03;;;;;;;13.60;7.63;;;;;;;;;;1497304;39;20034;-62
2021/05/02 01:34:05;;;;;;;12.52;6.53;;;;;;;;;;1497166;39;20023;-62
2021/05/02 01:35:07;;;;;;;9.52;5.93;;;;;;;;;;1497308;39;20031;-62
2021/05/02 01:36:08;;;;;;;11.27;7.40;;;;;;;;;;1496674;39;20059;-62
2021/05/02 01:37:09;;;;;;;11.02;6.43;;;;;;;;;;1496862;39;20440;-59
2021/05/02 01:38:12;;;;;;;11.10;6.30;;;;;;;;;;1497198;39;20031;-58
2021/05/02 01:39:14;;;;;;;12.40;6.45;;;;;;;;;;1497007;39;20039;-58
2021/05/02 01:40:16;;;;;;;9.60;6.15;;;;;;;;;;1497283;39;20042;-59
2021/05/02 01:41:17;;;;;;;8.25;4.97;;;;;;;;;;1497062;39;20387;-59
2021/05/02 01:42:19;;;;;;;8.45;5.03;;;;;;;;;;1497149;39;20027;-58
2021/05/02 01:43:21;;;;;;;9.82;5.30;;;;;;;;;;1497214;39;20039;-59
2021/05/02 01:44:22;;;;;;;7.47;4.75;;;;;;;;;;1497082;39;20394;-59
2021/05/02 01:45:23;;;;;;;7.90;4.63;;;;;;;;;;1497352;39;20035;-58
2021/05/02 01:46:31;;;;;;;8.07;4.78;;;;;;;;;;1497130;39;20414;-58
2021/05/02 01:47:37;;;;;;;8.38;5.10;;;;;;;;;;1497164;39;20047;-58
2021/05/02 01:48:40;;;;;;;7.38;4.68;;;;;;;;;;1497058;39;20031;-58
2021/05/02 01:49:47;;;;;;;5.45;3.63;;;;;;;;;;1497057;39;20020;-59
2021/05/02 01:50:52;;;;;;;6.43;3.88;;;;;;;;;;1497095;39;20038;-58
2021/05/02 01:51:53;;;;;;;4.10;2.92;;;;;;;;;;1497250;39;20329;-57
2021/05/02 01:52:55;;;;;;;5.15;2.92;;;;;;;;;;1497220;39;20027;-58
2021/05/02 01:54:00;;;;;;;5.47;3.13;;;;;;;;;;1497032;39;20302;-58
2021/05/02 01:55:03;;;;;;;5.88;3.72;;;;;;;;;;1497174;39;20294;-58
2021/05/02 01:56:05;;;;;;;5.55;3.38;;;;;;;;;;1497280;39;20032;-61
2021/05/02 01:57:07;;;;;;;4.88;3.28;;;;;;;;;;1497194;39;20024;-59
2021/05/02 01:58:10;;;;;;;5.78;3.20;;;;;;;;;;1497193;39;20034;-58
2021/05/02 01:59:13;;;;;;;6.22;3.20;;;;;;;;;;1496992;39;20035;-58
2021/05/02 02:00:30;;;;;;;4.90;3.33;;;;;;;;;;1497068;39;20275;-59
2021/05/02 02:01:34;;;;;;;6.22;3.72;;;;;;;;;;1497389;39;20031;-58
2021/05/02 02:02:37;;;;;;;5.60;3.60;;;;;;;;;;1496746;39;20082;-58
2021/05/02 02:03:38;;;;;;;5.88;3.40;;;;;;;;;;1496550;39;20024;-59
2021/05/02 02:04:44;;;;;;;6.80;3.60;;;;;;;;;;1497013;39;20027;-58
2021/05/02 02:05:45;;;;;;;5.90;3.55;;;;;;;;;;1497111;39;20045;-59
2021/05/02 02:06:48;;;;;;;6.65;3.97;;;;;;;;;;1497067;39;20039;-59
2021/05/02 02:07:49;;;;;;;6.00;4.05;;;;;;;;;;1496941;39;20031;-58
2021/05/02 02:08:51;;;;;;;6.07;3.92;;;;;;;;;;1496949;39;20416;-58
2021/05/02 02:09:52;;;;;;;6.43;4.07;;;;;;;;;;1497283;39;20024;-59
2021/05/02 02:10:55;;;;;;;5.80;3.50;;;;;;;;;;1497017;39;20293;-59
2021/05/02 02:11:56;;;;;;;6.78;3.55;;;;;;;;;;1497001;39;20424;-59
2021/05/02 02:12:58;;;;;;;7.30;3.92;;;;;;;;;;1497192;39;20024;-59
2021/05/02 02:13:59;;;;;;;5.85;3.45;;;;;;;;;;1496996;39;20386;-59
2021/05/02 02:15:00;;;;;;;5.55;3.30;;;;;;;;;;1497029;39;20471;-58
2021/05/02 02:16:04;;;;;;;5.95;3.17;;;;;;;;;;1497019;39;20260;-58
2021/05/02 02:17:06;;;;;;;5.28;3.33;;;;;;;;;;1497314;39;20024;-58
2021/05/02 02:18:08;;;;;;;4.30;2.78;;;;;;;;;;1497167;39;20047;-59
2021/05/02 02:19:10;;;;;;;4.38;2.55;;;;;;;;;;1496893;39;20291;-59
2021/05/02 02:20:12;;;;;;;4.75;2.63;;;;;;;;;;1496976;39;20027;-59
2021/05/02 02:21:14;;;;;;;5.47;2.75;;;;;;;;;;1497246;39;20023;-59
2021/05/02 02:22:17;;;;;;;4.10;2.42;;;;;;;;;;1496845;39;20015;-59
2021/05/02 02:23:20;;;;;;;4.53;2.40;;;;;;;;;;1496993;39;20319;-57
2021/05/02 02:24:35;;;;;;;3.67;2.20;;;;;;;;;;1496956;39;20075;-58
2021/05/02 02:25:42;;;;;;;4.22;2.10;;;;;;;;;;1497065;39;20058;-59
2021/05/02 02:26:51;;;;;;;3.80;2.13;;;;;;;;;;1496978;39;20294;-59
2021/05/02 02:27:55;;;;;;;5.53;2.10;;;;;;;;;;1496959;39;20310;-59
2021/05/02 02:28:58;;;;;;;3.67;1.95;;;;;;;;;;1496911;39;20402;-58
2021/05/02 02:30:00;;;;;;;3.08;1.83;;;;;;;;;;1496994;39;20097;-59
2021/05/02 02:31:02;;;;;;;3.20;1.98;;;;;;;;;;1497133;39;20039;-58
2021/05/02 02:32:06;;;;;;;4.18;1.88;;;;;;;;;;1497118;39;20036;-58
2021/05/02 02:33:08;;;;;;;3.45;2.00;;;;;;;;;;1496953;39;20027;-58
2021/05/02 02:34:09;;;;;;;3.58;1.90;;;;;;;;;;1496900;39;20027;-59
2021/05/02 02:35:14;;;;;;;3.53;1.85;;;;;;;;;;1497170;39;20055;-59
2021/05/02 02:36:15;;;;;;;3.17;1.83;;;;;;;;;;1497245;39;20019;-59
2021/05/02 02:37:18;;;;;;;3.05;2.00;;;;;;;;;;1497008;39;20362;-59
2021/05/02 02:38:21;;;;;;;3.95;2.00;;;;;;;;;;1497157;39;20043;-59
2021/05/02 02:39:22;;;;;;;3.20;2.03;;;;;;;;;;1497240;39;20031;-59
2021/05/02 02:40:24;;;;;;;3.92;1.88;;;;;;;;;;1497063;39;20035;-58
2021/05/02 02:41:27;;;;;;;2.92;1.70;;;;;;;;;;1497169;39;20059;-59
2021/05/02 02:42:30;;;;;;;4.55;2.50;;;;;;;;;;1496920;39;20028;-58
2021/05/02 02:43:32;;;;;;;2.63;1.65;;;;;;;;;;1496934;39;20039;-59
2021/05/02 02:44:35;;;;;;;3.42;1.80;;;;;;;;;;1496941;39;20302;-59
2021/05/02 02:45:39;;;;;;;4.43;2.00;;;;;;;;;;1496947;39;20067;-58
2021/05/02 02:46:41;;;;;;;4.05;2.42;;;;;;;;;;1496912;39;20405;-59
2021/05/02 02:47:46;;;;;;;3.53;1.90;;;;;;;;;;1496832;39;20033;-59
2021/05/02 02:48:52;;;;;;;3.42;1.90;;;;;;;;;;1496826;39;20422;-58
2021/05/02 02:49:57;;;;;;;4.30;1.90;;;;;;;;;;1497066;39;20034;-59
2021/05/02 02:51:01;;;;;;;3.53;1.98;;;;;;;;;;1496913;39;20402;-59
2021/05/02 02:52:03;;;;;;;3.65;1.70;;;;;;;;;;1496880;39;20379;-59
2021/05/02 02:53:05;;;;;;;4.15;2.10;;;;;;;;;;1496866;39;20027;-58
2021/05/02 02:54:08;;;;;;;4.05;2.05;;;;;;;;;;1497050;39;20031;-59
2021/05/02 02:55:12;;;;;;;3.10;1.70;;;;;;;;;;1497030;39;20028;-59
2021/05/02 02:56:17;;;;;;;3.45;1.92;;;;;;;;;;1496862;39;20064;-59
2021/05/02 02:57:20;;;;;;;4.82;2.17;;;;;;;;;;1496861;39;20310;-59
2021/05/02 02:58:25;;;;;;;2.92;1.77;;;;;;;;;;1497043;39;20027;-58
2021/05/02 02:59:29;;;;;;;3.88;1.70;;;;;;;;;;1496901;39;20023;-59
2021/05/02 03:00:32;;;;;;;4.47;1.88;;;;;;;;;;1497047;39;20027;-58
2021/05/02 03:01:35;;;;;;;3.00;1.90;;;;;;;;;;1497045;39;20032;-58
2021/05/02 03:02:38;;;;;;;3.03;1.83;;;;;;;;;;1496859;39;20035;-59
2021/05/02 03:03:43;;;;;;;4.25;2.00;;;;;;;;;;1496870;39;20408;-59
2021/05/02 03:04:49;;;;;;;1.85;1.25;;;;;;;;;;1496881;39;20038;-58
2021/05/02 03:05:52;;;;;;;3.30;1.80;;;;;;;;;;1497064;39;20023;-58
2021/05/02 03:06:54;;;;;;;3.53;1.95;;;;;;;;;;1496872;39;20302;-58
2021/05/02 03:07:57;;;;;;;3.08;1.80;;;;;;;;;;1496789;39;20027;-57
2021/05/02 03:08:59;;;;;;;2.80;1.70;;;;;;;;;;1496836;39;20406;-59
2021/05/02 03:10:00;;;;;;;3.33;1.70;;;;;;;;;;1497040;39;20028;-59
2021/05/02 03:11:02;;;;;;;2.80;1.67;;;;;;;;;;1496854;39;20039;-59
2021/05/02 03:12:05;;;;;;;3.55;1.92;;;;;;;;;;1497024;39;20039;-59
2021/05/02 03:13:07;;;;;;;3.47;1.80;;;;;;;;;;1497035;39;20034;-58
2021/05/02 03:14:12;;;;;;;3.25;1.95;;;;;;;;;;1496911;39;20027;-58
2021/05/02 03:15:13;;;;;;;4.38;1.80;;;;;;;;;;1496850;39;20302;-58
2021/05/02 03:16:19;;;;;;;3.25;1.95;;;;;;;;;;1496829;39;20408;-58
2021/05/02 03:17:22;;;;;;;4.15;1.73;;;;;;;;;;1497053;39;20034;-58
2021/05/02 03:18:26;;;;;;;3.33;1.80;;;;;;;;;;1497045;39;20024;-59
2021/05/02 03:19:28;;;;;;;4.50;1.95;;;;;;;;;;1496956;39;20039;-58
2021/05/02 03:20:33;;;;;;;3.50;2.10;;;;;;;;;;1496974;39;20024;-58
2021/05/02 03:21:44;;;;;;;3.95;1.73;;;;;;;;;;1497281;39;20034;-59
2021/05/02 03:22:49;;;;;;;4.53;1.95;;;;;;;;;;1497088;39;20027;-58
2021/05/02 03:23:56;;;;;;;4.05;1.92;;;;;;;;;;1496763;39;20024;-59
2021/05/02 03:25:01;;;;;;;3.92;1.90;;;;;;;;;;1496877;39;20024;-59
2021/05/02 03:26:04;;;;;;;4.30;2.03;;;;;;;;;;1496952;39;20108;-59
2021/05/02 03:27:10;;;;;;;3.88;1.75;;;;;;;;;;1497040;39;20062;-58
2021/05/02 03:28:21;;;;;;;3.65;1.75;;;;;;;;;;1496767;39;20032;-58
2021/05/02 03:29:25;;;;;;;3.58;2.00;;;;;;;;;;1496773;39;20120;-58
2021/05/02 03:30:27;;;;;;;2.70;1.40;;;;;;;;;;1496753;39;20135;-58
2021/05/02 03:31:32;;;;;;;2.50;1.30;;;;;;;;;;1496982;39;20039;-59
2021/05/02 03:32:35;;;;;;;2.47;1.20;;;;;;;;;;1496739;39;20024;-59
2021/05/02 03:33:40;;;;;;;2.53;1.23;;;;;;;;;;1497020;39;20030;-59
2021/05/02 03:34:42;;;;;;;2.80;1.40;;;;;;;;;;1497395;39;20031;-58
2021/05/02 03:35:48;;;;;;;2.67;1.10;;;;;;;;;;1497656;39;20027;-58
2021/05/02 03:36:51;;;;;;;2.40;1.30;;;;;;;;;;1497664;39;20023;-58
2021/05/02 03:38:03;;;;;;;2.45;1.20;;;;;;;;;;1497405;39;20108;-58
2021/05/02 03:39:05;;;;;;;2.42;1.35;;;;;;;;;;1497583;39;20067;-58
2021/05/02 03:40:07;;;;;;;1.95;1.08;;;;;;;;;;1497497;39;20383;-59
2021/05/02 03:41:09;;;;;;;3.33;1.10;;;;;;;;;;1497438;39;20028;-59
2021/05/02 03:42:10;;;;;;;2.38;1.15;;;;;;;;;;1497484;39;20027;-58
2021/05/02 03:43:12;;;;;;;2.75;1.23;;;;;;;;;;1497489;39;20027;-58
2021/05/02 03:44:12;;;;;;;2.88;1.38;;;;;;;;;;1497589;39;20034;-58
2021/05/02 03:45:15;;;;;;;2.38;1.27;;;;;;;;;;1497464;39;20386;-58
2021/05/02 03:46:25;;;;;;;1.75;1.20;;;;;;;;;;1497428;39;20023;-58
2021/05/02 03:47:26;;;;;;;2.40;1.38;;;;;;;;;;1497475;39;20071;-58
2021/05/02 03:48:27;;;;;;;2.03;1.30;;;;;;;;;;1496885;39;20131;-59
2021/05/02 03:49:30;;;;;;;2.63;1.10;;;;;;;;;;1496934;39;20112;-58
2021/05/02 03:50:31;;;;;;;2.92;1.77;;;;;;;;;;1497624;39;20038;-58
2021/05/02 03:51:34;;;;;;;2.85;1.42;;;;;;;;;;1497599;39;20055;-59
2021/05/02 03:52:35;;;;;;;3.17;1.35;;;;;;;;;;1497663;39;20028;-59
2021/05/02 03:53:36;;;;;;;3.80;1.50;;;;;;;;;;1497368;39;20344;-58
2021/05/02 03:54:37;;;;;;;2.75;1.50;;;;;;;;;;1497560;39;20027;-58
2021/05/02 03:55:42;;;;;;;2.60;1.15;;;;;;;;;;1497369;39;20031;-58
2021/05/02 03:56:45;;;;;;;2.22;1.17;;;;;;;;;;1497558;39;20081;-58
2021/05/02 03:57:46;;;;;;;3.15;1.55;;;;;;;;;;1497125;39;20027;-58
2021/05/02 03:58:47;;;;;;;2.85;1.50;;;;;;;;;;1497066;39;20049;-58
2021/05/02 03:59:49;;;;;;;2.72;1.25;;;;;;;;;;1497347;39;20027;-58
2021/05/02 04:00:51;;;;;;;2.72;1.40;;;;;;;;;;1497526;39;20035;-59
2021/05/02 04:01:55;;;;;;;4.35;1.58;;;;;;;;;;1497661;39;20034;-58
2021/05/02 04:02:55;;;;;;;2.22;1.20;;;;;;;;;;1497394;39;20108;-58
2021/05/02 04:03:59;;;;;;;2.95;1.60;;;;;;;;;;1497576;39;20039;-58
2021/05/02 04:05:00;;;;;;;2.85;1.67;;;;;;;;;;1497365;39;20386;-58
2021/05/02 04:06:01;;;;;;;2.47;1.30;;;;;;;;;;1497353;39;20035;-58
2021/05/02 04:07:04;;;;;;;3.33;1.52;;;;;;;;;;1497586;39;20088;-58
2021/05/02 04:08:05;;;;;;;2.90;1.88;;;;;;;;;;1497285;39;20032;-58
2021/05/02 04:09:08;;;;;;;2.40;1.45;;;;;;;;;;1497376;39;20070;-58
2021/05/02 04:10:09;;;;;;;3.20;1.50;;;;;;;;;;1497442;39;20103;-57
2021/05/02 04:11:10;;;;;;;3.30;1.40;;;;;;;;;;1497326;39;20034;-59
2021/05/02 04:12:12;;;;;;;2.97;1.65;;;;;;;;;;1497513;39;20031;-59
2021/05/02 04:13:12;;;;;;;2.65;1.50;;;;;;;;;;1497520;39;20104;-58
2021/05/02 04:14:16;;;;;;;4.35;2.00;;;;;;;;;;1497476;39;20450;-57
2021/05/02 04:15:17;;;;;;;2.95;1.48;;;;;;;;;;1497552;39;20039;-58
2021/05/02 04:16:19;;;;;;;3.58;1.90;;;;;;;;;;1496975;39;20035;-58
2021/05/02 04:17:20;;;;;;;3.58;1.67;;;;;;;;;;1497048;39;20125;-58
2021/05/02 04:18:30;;;;;;;4.43;2.10;;;;;;;;;;1497298;39;20375;-58
2021/05/02 04:19:32;;;;;;;3.95;2.20;;;;;;;;;;1497511;39;20039;-58
2021/05/02 04:20:34;;;;;;;5.68;2.40;;;;;;;;;;1497341;39;20032;-58
2021/05/02 04:21:35;;;;;;;4.82;2.58;;;;;;;;;;1497274;39;20023;-59
2021/05/02 04:22:37;;;;;;;5.00;2.65;;;;;;;;;;1497480;39;20035;-58
2021/05/02 04:23:38;;;;;;;4.50;2.63;;;;;;;;;;1497293;39;20309;-57
2021/05/02 04:24:40;;;;;;;5.75;3.10;;;;;;;;;;1497453;39;20031;-56
2021/05/02 04:25:40;;;;;;;6.13;2.97;;;;;;;;;;1496793;39;20334;-58
2021/05/02 04:26:43;;;;;;;6.28;3.50;;;;;;;;;;1496915;39;20047;-59
2021/05/02 04:27:44;;;;;;;5.72;3.50;;;;;;;;;;1497251;39;20028;-58
2021/05/02 04:28:45;;;;;;;5.97;3.47;;;;;;;;;;1497252;39;20032;-58
2021/05/02 04:29:46;;;;;;;5.97;3.70;;;;;;;;;;1497276;39;20035;-58
2021/05/02 04:30:47;;;;;;;6.50;3.42;;;;;;;;;;1497284;39;20034;-58
2021/05/02 04:31:49;;;;;;;6.78;3.65;;;;;;;;;;1497473;39;20034;-59
2021/05/02 04:32:50;;;;;;;7.00;4.00;;;;;;;;;;1497286;39;20322;-58
2021/05/02 04:33:52;;;;;;;7.03;3.80;;;;;;;;;;1497241;39;20037;-59
2021/05/02 04:34:52;;;;;;;7.15;3.63;;;;;;;;;;1497307;39;20290;-59
2021/05/02 04:35:54;;;;;;;5.65;3.58;;;;;;;;;;1497469;39;20031;-58
2021/05/02 04:36:57;;;;;;;7.25;3.65;;;;;;;;;;1497410;39;20027;-58
2021/05/02 04:37:58;;;;;;;8.13;4.13;;;;;;;;;;1497384;39;20138;-57
2021/05/02 04:38:59;;;;;;;8.05;4.38;;;;;;;;;;1497237;39;20036;-58
2021/05/02 04:40:01;;;;;;;5.63;3.65;;;;;;;;;;1497457;39;20054;-59
2021/05/02 04:41:02;;;;;;;7.68;4.07;;;;;;;;;;1497245;39;20031;-58
2021/05/02 04:42:03;;;;;;;7.05;3.72;;;;;;;;;;1497233;39;20105;-59
2021/05/02 04:43:04;;;;;;;6.72;3.90;;;;;;;;;;1497432;39;20123;-59
2021/05/02 04:44:06;;;;;;;7.25;4.10;;;;;;;;;;1497205;39;20032;-58
2021/05/02 04:45:08;;;;;;;5.43;3.55;;;;;;;;;;1497385;39;20023;-58
2021/05/02 04:46:11;;;;;;;7.05;4.53;;;;;;;;;;1497442;39;20071;-59
2021/05/02 04:47:18;;;;;;;6.97;3.97;;;;;;;;;;1497216;39;20043;-58
2021/05/02 04:48:19;;;;;;;8.80;4.68;;;;;;;;;;1497188;39;20090;-58
2021/05/02 04:49:21;;;;;;;8.23;4.63;;;;;;;;;;1496737;39;20031;-58
2021/05/02 04:50:22;;;;;;;8.20;4.55;;;;;;;;;;1496874;39;20024;-58
2021/05/02 04:51:25;;;;;;;6.72;3.42;;;;;;;;;;1497270;39;20027;-58
2021/05/02 04:52:25;;;;;;;7.68;4.20;;;;;;;;;;1497220;39;20383;-58
2021/05/02 04:53:27;;;;;;;8.10;4.30;;;;;;;;;;1497350;39;20039;-59
2021/05/02 04:54:28;;;;;;;7.30;4.70;;;;;;;;;;1497196;39;20130;-58
2021/05/02 04:55:29;;;;;;;7.60;4.53;;;;;;;;;;1497471;39;20032;-58
2021/05/02 04:56:31;;;;;;;6.50;3.75;;;;;;;;;;1497295;39;20035;-58
2021/05/02 04:57:32;;;;;;;7.93;4.80;;;;;;;;;;1497128;39;20080;-58
2021/05/02 04:58:33;;;;;;;8.77;4.63;;;;;;;;;;1497103;39;20076;-58
2021/05/02 04:59:34;;;;;;;8.63;4.97;;;;;;;;;;1497355;39;20034;-59
2021/05/02 05:00:35;;;;;;;7.88;4.53;;;;;;;;;;1497432;39;20111;-59
2021/05/02 05:01:37;;;;;;;7.80;4.50;;;;;;;;;;1497356;39;20034;-59
2021/05/02 05:02:39;;;;;;;7.80;4.43;;;;;;;;;;1497199;39;20038;-59
2021/05/02 05:03:42;;;;;;;8.35;4.72;;;;;;;;;;1497394;39;20024;-59
2021/05/02 05:04:43;;;;;;;6.88;3.67;;;;;;;;;;1497393;39;20040;-59
2021/05/02 05:05:44;;;;;;;7.25;4.40;;;;;;;;;;1497195;39;20275;-58
2021/05/02 05:06:45;;;;;;;6.93;4.18;;;;;;;;;;1497209;39;20473;-59
2021/05/02 05:07:46;;;;;;;6.53;4.03;;;;;;;;;;1497126;39;20043;-58
2021/05/02 05:08:47;;;;;;;8.00;4.60;;;;;;;;;;1497272;39;20035;-58
2021/05/02 05:09:49;;;;;;;6.55;4.30;;;;;;;;;;1497194;39;20275;-58
2021/05/02 05:10:50;;;;;;;8.98;4.82;;;;;;;;;;1497305;39;20030;-58
2021/05/02 05:11:51;;;;;;;7.72;4.55;;;;;;;;;;1497114;39;20398;-58
2021/05/02 05:12:52;;;;;;;8.88;4.72;;;;;;;;;;1497219;39;20024;-58
2021/05/02 05:13:53;;;;;;;7.72;4.88;;;;;;;;;;1497389;39;20028;-58
2021/05/02 05:14:54;;;;;;;7.38;4.22;;;;;;;;;;1497119;39;20379;-58
2021/05/02 05:15:55;;;;;;;7.40;4.55;;;;;;;;;;1497323;39;20034;-57
2021/05/02 05:16:57;;;;;;;9.82;4.80;;;;;;;;;;1497390;39;20027;-59
2021/05/02 05:17:58;;;;;;;7.70;4.50;;;;;;;;;;1497393;39;20032;-58
2021/05/02 05:19:00;;;;;;;8.77;4.38;;;;;;;;;;1497111;39;20394;-59
2021/05/02 05:20:00;;;;;;;7.78;4.65;;;;;;;;;;1497428;39;20111;-59
2021/05/02 05:21:02;;;;;;;8.30;4.55;;;;;;;;;;1497131;39;20503;-59
2021/05/02 05:22:04;;;;;;;7.72;4.18;;;;;;;;;;1497110;39;20028;-59
2021/05/02 05:23:05;;;;;;;8.27;4.82;;;;;;;;;;1497136;39;20076;-58
2021/05/02 05:24:07;;;;;;;6.35;3.67;;;;;;;;;;1497344;39;20067;-59
2021/05/02 05:25:09;;;;;;;8.85;4.63;;;;;;;;;;1497274;39;20034;-59
2021/05/02 05:26:10;;;;;;;7.82;4.38;;;;;;;;;;1497079;39;20028;-58
2021/05/02 05:27:12;;;;;;;7.53;4.22;;;;;;;;;;1497307;39;20046;-58
2021/05/02 05:28:13;;;;;;;8.30;4.30;;;;;;;;;;1497084;39;20302;-59
2021/05/02 05:29:14;;;;;;;7.43;4.57;;;;;;;;;;1497130;39;20134;-59
2021/05/02 05:30:16;;;;;;;6.72;4.30;;;;;;;;;;1497156;39;20032;-58
2021/05/02 05:31:17;;;;;;;6.97;4.20;;;;;;;;;;1497078;39;20294;-58
2021/05/02 05:32:18;;;;;;;7.47;3.78;;;;;;;;;;1497109;39;20038;-59
2021/05/02 05:33:21;;;;;;;7.20;4.00;;;;;;;;;;1497080;39;20031;-59
2021/05/02 05:34:22;;;;;;;6.88;3.92;;;;;;;;;;1497110;39;20386;-58
2021/05/02 05:35:23;;;;;;;6.55;4.13;;;;;;;;;;1497119;39;20111;-59
2021/05/02 05:36:24;;;;;;;5.82;3.78;;;;;;;;;;1497405;39;20030;-58
2021/05/02 05:37:25;;;;;;;6.60;4.28;;;;;;;;;;1497090;39;20111;-58
2021/05/02 05:38:28;;;;;;;6.82;4.55;;;;;;;;;;1496994;39;20027;-59
2021/05/02 05:39:29;;;;;;;7.03;4.10;;;;;;;;;;1497284;39;20032;-59
2021/05/02 05:40:30;;;;;;;8.55;4.07;;;;;;;;;;1497045;39;20031;-59
2021/05/02 05:41:31;;;;;;;6.68;4.35;;;;;;;;;;1497094;39;20053;-58
2021/05/02 05:42:32;;;;;;;6.80;4.13;;;;;;;;;;1497072;39;20028;-58
2021/05/02 05:43:33;;;;;;;8.25;4.80;;;;;;;;;;1497110;39;20360;-58
2021/05/02 05:44:35;;;;;;;6.47;4.35;;;;;;;;;;1497106;39;20031;-59
2021/05/02 05:45:36;;;;;;;7.80;4.88;;;;;;;;;;1497345;39;20027;-59
2021/05/02 05:46:37;;;;;;;6.50;3.83;;;;;;;;;;1497092;39;20035;-58
2021/05/02 05:47:38;;;;;;;7.72;4.57;;;;;;;;;;1497231;39;20019;-59
2021/05/02 05:48:41;;;;;;;8.57;4.38;;;;;;;;;;1496923;39;20386;-59
2021/05/02 05:49:42;;;;;;;8.85;4.68;;;;;;;;;;1496624;39;20034;-59
2021/05/02 05:50:47;;;;;;;6.57;4.38;;;;;;;;;;1496807;39;20038;-58
2021/05/02 05:51:51;;;;;;;8.63;4.60;;;;;;;;;;1497134;39;20040;-58
2021/05/02 05:52:53;;;;;;;7.63;4.60;;;;;;;;;;1497251;39;20103;-59
2021/05/02 05:53:54;;;;;;;7.35;4.63;;;;;;;;;;1497294;39;20027;-59
2021/05/02 05:54:55;;;;;;;7.28;4.22;;;;;;;;;;1497095;39;20027;-58
2021/05/02 05:55:56;;;;;;;8.63;5.03;;;;;;;;;;1497221;39;20031;-59
2021/05/02 05:56:58;;;;;;;9.23;5.40;;;;;;;;;;1497076;39;20038;-58
2021/05/02 05:57:59;;;;;;;9.00;5.15;;;;;;;;;;1496353;39;20035;-59
2021/05/02 05:59:00;;;;;;;7.15;4.88;;;;;;;;;;1496503;39;20035;-58
2021/05/02 06:00:01;;;;;;;6.95;4.38;;;;;;;;;;1497218;39;20031;-58
2021/05/02 06:01:02;;;;;;;8.57;5.07;;;;;;;;;;1497217;39;20328;-59
2021/05/02 06:02:03;;;;;;;7.95;4.70;;;;;;;;;;1497024;39;20076;-58
2021/05/02 06:03:05;;;;;;;9.25;5.38;;;;;;;;;;1497172;39;20096;-59
2021/05/02 06:04:07;;;;;;;10.13;5.15;;;;;;;;;;1496999;39;20034;-59
2021/05/02 06:05:10;;;;;;;9.60;5.25;;;;;;;;;;1497227;39;20035;-59
2021/05/02 06:06:11;;;;;;;6.88;4.35;;;;;;;;;;1497023;39;20053;-59
2021/05/02 06:07:12;;;;;;;8.55;5.05;;;;;;;;;;1497225;39;20032;-58
2021/05/02 06:08:13;;;;;;;11.27;5.35;;;;;;;;;;1496957;39;20091;-59
2021/05/02 06:09:14;;;;;;;9.00;5.13;;;;;;;;;;1496542;39;20426;-59
2021/05/02 06:10:15;;;;;;;8.55;4.82;;;;;;;;;;1496725;39;20038;-58
2021/05/02 06:11:16;;;;;;;8.32;4.70;;;;;;;;;;1497004;39;20050;-59
2021/05/02 06:12:19;;;;;;;9.20;5.10;;;;;;;;;;1496960;39;20294;-59
2021/05/02 06:13:20;;;;;;;9.73;5.47;;;;;;;;;;1496985;39;20317;-58
2021/05/02 06:14:21;;;;;;;9.75;5.03;;;;;;;;;;1497163;39;20039;-58
2021/05/02 06:15:23;;;;;;;8.75;5.40;;;;;;;;;;1497189;39;20035;-58